createdAt,value
2018-03-02T00:00:04.590Z,-9.80
2018-03-02T00:01:04.567Z,-9.77
2018-03-02T00:02:04.535Z,-9.87
2018-03-02T00:03:04.514Z,-9.83
2018-03-02T00:04:04.484Z,-9.86
2018-03-02T00:05:04.462Z,-9.83
2018-03-02T00:06:04.432Z,-9.95
2018-03-02T00:07:04.411Z,-9.92
2018-03-02T00:08:04.379Z,-9.95
2018-03-02T00:09:04.354Z,-9.98
2018-03-02T00:10:04.375Z,-9.95
2018-03-02T00:11:04.305Z,-9.86
2018-03-02T00:12:04.272Z,-10.04
2018-03-02T00:13:04.249Z,-9.94
2018-03-02T00:14:04.223Z,-9.98
2018-03-02T00:15:04.196Z,-9.94
2018-03-02T00:16:04.169Z,-10.04
2018-03-02T00:17:04.145Z,-9.97
2018-03-02T00:18:04.122Z,-9.97
2018-03-02T00:19:04.096Z,-9.97
2018-03-02T00:20:04.066Z,-9.92
2018-03-02T00:21:04.042Z,-9.95
2018-03-02T00:22:04.015Z,-9.97
2018-03-02T00:23:03.991Z,-9.98
2018-03-02T00:24:03.964Z,-10.00
2018-03-02T00:25:03.948Z,-10.01
2018-03-02T00:26:03.915Z,-9.97
2018-03-02T00:27:03.888Z,-10.02
2018-03-02T00:28:03.859Z,-10.00
2018-03-02T00:29:03.835Z,-9.97
2018-03-02T00:30:03.808Z,-10.07
2018-03-02T00:31:03.796Z,-10.01
2018-03-02T00:32:03.756Z,-10.08
2018-03-02T00:33:03.828Z,-9.98
2018-03-02T00:34:03.702Z,-10.10
2018-03-02T00:35:03.687Z,-10.07
2018-03-02T00:36:03.650Z,-10.10
2018-03-02T00:37:03.701Z,-10.15
2018-03-02T00:38:03.600Z,-10.13
2018-03-02T00:39:03.584Z,-10.19
2018-03-02T00:40:03.553Z,-10.13
2018-03-02T00:41:03.521Z,-10.21
2018-03-02T00:42:03.495Z,-10.19
2018-03-02T00:43:03.470Z,-10.18
2018-03-02T00:44:03.443Z,-10.22
2018-03-02T00:45:03.435Z,-10.23
2018-03-02T00:46:03.396Z,-10.15
2018-03-02T00:47:03.426Z,-10.13
2018-03-02T00:48:03.337Z,-10.12
2018-03-02T00:49:03.330Z,-10.13
2018-03-02T00:50:03.290Z,-10.16
2018-03-02T00:51:03.264Z,-10.15
2018-03-02T00:52:03.233Z,-10.18
2018-03-02T00:53:03.211Z,-10.13
2018-03-02T00:54:03.183Z,-10.23
2018-03-02T00:55:03.163Z,-10.15
2018-03-02T00:56:03.130Z,-10.18
2018-03-02T00:57:03.103Z,-10.10
2018-03-02T00:58:03.076Z,-10.19
2018-03-02T00:59:03.050Z,-10.13
2018-03-02T01:00:03.027Z,-10.08
2018-03-02T01:01:02.998Z,-10.18
2018-03-02T01:02:02.971Z,-10.22
2018-03-02T01:03:02.947Z,-10.25
2018-03-02T01:04:02.918Z,-10.23
2018-03-02T01:05:02.895Z,-10.28
2018-03-02T01:06:02.871Z,-10.30
2018-03-02T01:07:02.837Z,-10.26
2018-03-02T01:08:02.823Z,-10.26
2018-03-02T01:09:02.787Z,-10.31
2018-03-02T01:10:02.763Z,-10.21
2018-03-02T01:11:02.739Z,-10.25
2018-03-02T01:12:02.714Z,-10.19
2018-03-02T01:13:02.684Z,-10.28
2018-03-02T01:14:02.660Z,-10.31
2018-03-02T01:15:02.630Z,-10.36
2018-03-02T01:16:02.608Z,-10.36
2018-03-02T01:17:02.582Z,-10.37
2018-03-02T01:18:02.553Z,-10.46
2018-03-02T01:19:02.525Z,-10.47
2018-03-02T01:20:02.500Z,-10.52
2018-03-02T01:21:02.484Z,-10.51
2018-03-02T01:22:02.448Z,-10.47
2018-03-02T01:23:02.424Z,-10.50
2018-03-02T01:24:02.400Z,-10.36
2018-03-02T01:25:02.375Z,-10.44
2018-03-02T01:26:02.345Z,-10.43
2018-03-02T01:27:02.320Z,-10.44
2018-03-02T01:28:02.344Z,-10.44
2018-03-02T01:29:02.265Z,-10.54
2018-03-02T01:30:02.250Z,-10.37
2018-03-02T01:31:02.214Z,-10.44
2018-03-02T01:32:02.184Z,-10.55
2018-03-02T01:33:02.163Z,-10.52
2018-03-02T01:34:02.135Z,-10.50
2018-03-02T01:35:02.106Z,-10.43
2018-03-02T01:36:02.084Z,-10.54
2018-03-02T01:37:02.055Z,-10.50
2018-03-02T01:38:02.050Z,-10.57
2018-03-02T01:39:02.004Z,-10.55
2018-03-02T01:40:02.054Z,-10.64
2018-03-02T01:41:01.956Z,-10.50
2018-03-02T01:42:01.929Z,-10.64
2018-03-02T01:43:01.900Z,-10.61
2018-03-02T01:44:01.878Z,-10.57
2018-03-02T01:45:01.843Z,-10.61
2018-03-02T01:46:01.857Z,-10.54
2018-03-02T01:47:01.791Z,-10.54
2018-03-02T01:48:01.818Z,-10.64
2018-03-02T01:49:01.744Z,-10.57
2018-03-02T01:50:01.750Z,-10.60
2018-03-02T01:51:01.686Z,-10.61
2018-03-02T01:52:01.658Z,-10.72
2018-03-02T01:53:01.639Z,-10.75
2018-03-02T01:54:01.614Z,-10.75
2018-03-02T01:55:01.584Z,-10.73
2018-03-02T01:56:01.559Z,-10.73
2018-03-02T01:57:01.526Z,-10.72
2018-03-02T01:58:01.503Z,-10.75
2018-03-02T01:59:01.476Z,-10.71
2018-03-02T02:00:01.451Z,-10.81
2018-03-02T02:01:01.422Z,-10.81
2018-03-02T02:02:01.397Z,-10.76
2018-03-02T02:03:01.373Z,-10.83
2018-03-02T02:04:01.344Z,-10.76
2018-03-02T02:05:01.320Z,-10.76
2018-03-02T02:06:01.294Z,-10.82
2018-03-02T02:07:01.265Z,-10.82
2018-03-02T02:08:01.241Z,-10.82
2018-03-02T02:09:01.215Z,-10.79
2018-03-02T02:10:01.191Z,-10.88
2018-03-02T02:11:01.160Z,-10.86
2018-03-02T02:12:01.134Z,-10.83
2018-03-02T02:13:01.116Z,-10.76
2018-03-02T02:14:01.082Z,-10.90
2018-03-02T02:15:01.059Z,-10.86
2018-03-02T02:16:01.034Z,-10.86
2018-03-02T02:17:01.003Z,-10.88
2018-03-02T02:18:00.978Z,-10.76
2018-03-02T02:19:00.954Z,-10.86
2018-03-02T02:20:00.923Z,-10.91
2018-03-02T02:21:00.898Z,-10.97
2018-03-02T02:22:00.871Z,-11.00
2018-03-02T02:23:00.844Z,-11.01
2018-03-02T02:24:00.820Z,-10.82
2018-03-02T02:25:00.794Z,-10.98
2018-03-02T02:26:00.764Z,-10.94
2018-03-02T02:27:00.734Z,-10.98
2018-03-02T02:28:00.713Z,-10.97
2018-03-02T02:29:00.684Z,-10.97
2018-03-02T02:30:00.659Z,-10.82
2018-03-02T02:31:00.632Z,-10.98
2018-03-02T02:32:00.608Z,-11.01
2018-03-02T02:33:00.582Z,-11.01
2018-03-02T02:34:00.559Z,-11.00
2018-03-02T02:35:00.526Z,-11.00
2018-03-02T02:36:00.502Z,-10.83
2018-03-02T02:37:00.474Z,-10.94
2018-03-02T02:38:00.450Z,-11.03
2018-03-02T02:39:00.424Z,-11.00
2018-03-02T02:40:00.393Z,-11.04
2018-03-02T02:41:00.366Z,-11.13
2018-03-02T02:42:00.343Z,-11.08
2018-03-02T02:43:00.317Z,-11.03
2018-03-02T02:44:00.289Z,-10.98
2018-03-02T02:45:00.263Z,-11.09
2018-03-02T02:46:00.239Z,-11.04
2018-03-02T02:47:00.269Z,-11.01
2018-03-02T02:48:00.184Z,-11.11
2018-03-02T02:49:00.159Z,-11.09
2018-03-02T02:50:00.132Z,-11.01
2018-03-02T02:51:00.168Z,-11.03
2018-03-02T02:52:00.082Z,-11.03
2018-03-02T02:53:00.058Z,-11.04
2018-03-02T02:54:00.027Z,-11.09
2018-03-02T02:55:00.011Z,-11.06
2018-03-02T02:55:59.980Z,-11.04
2018-03-02T02:56:59.948Z,-11.01
2018-03-02T02:57:59.937Z,-11.03
2018-03-02T02:58:59.892Z,-11.04
2018-03-02T02:59:59.868Z,-11.00
2018-03-02T03:00:59.857Z,-11.04
2018-03-02T03:01:59.814Z,-10.98
2018-03-02T03:02:59.789Z,-11.04
2018-03-02T03:03:59.762Z,-11.08
2018-03-02T03:04:59.734Z,-11.08
2018-03-02T03:05:59.710Z,-11.04
2018-03-02T03:06:59.684Z,-11.01
2018-03-02T03:07:59.660Z,-11.04
2018-03-02T03:08:59.630Z,-11.08
2018-03-02T03:09:59.602Z,-11.00
2018-03-02T03:10:59.583Z,-11.13
2018-03-02T03:11:59.553Z,-11.19
2018-03-02T03:12:59.524Z,-11.16
2018-03-02T03:13:59.497Z,-11.16
2018-03-02T03:14:59.471Z,-11.12
2018-03-02T03:15:59.440Z,-11.16
2018-03-02T03:16:59.415Z,-11.06
2018-03-02T03:17:59.390Z,-11.11
2018-03-02T03:18:59.362Z,-11.09
2018-03-02T03:19:59.340Z,-11.11
2018-03-02T03:20:59.307Z,-11.09
2018-03-02T03:21:59.284Z,-11.16
2018-03-02T03:22:59.258Z,-11.12
2018-03-02T03:23:59.230Z,-11.16
2018-03-02T03:24:59.203Z,-11.16
2018-03-02T03:25:59.180Z,-11.27
2018-03-02T03:26:59.148Z,-11.18
2018-03-02T03:27:59.124Z,-11.23
2018-03-02T03:28:59.098Z,-11.16
2018-03-02T03:29:59.072Z,-11.22
2018-03-02T03:30:59.043Z,-11.19
2018-03-02T03:31:59.018Z,-11.27
2018-03-02T03:32:58.991Z,-11.16
2018-03-02T03:33:58.963Z,-11.18
2018-03-02T03:34:58.937Z,-11.15
2018-03-02T03:35:58.911Z,-11.15
2018-03-02T03:36:58.893Z,-11.15
2018-03-02T03:37:58.858Z,-11.22
2018-03-02T03:38:58.829Z,-11.21
2018-03-02T03:39:58.812Z,-11.22
2018-03-02T03:40:58.779Z,-11.29
2018-03-02T03:41:58.752Z,-11.30
2018-03-02T03:42:58.725Z,-11.34
2018-03-02T03:43:58.699Z,-11.40
2018-03-02T03:44:58.675Z,-11.45
2018-03-02T03:45:58.654Z,-11.45
2018-03-02T03:46:58.617Z,-11.45
2018-03-02T03:47:58.592Z,-11.50
2018-03-02T03:48:58.574Z,-11.48
2018-03-02T03:49:58.541Z,-11.50
2018-03-02T03:50:58.513Z,-11.47
2018-03-02T03:51:58.488Z,-11.44
2018-03-02T03:52:58.460Z,-11.44
2018-03-02T03:53:58.433Z,-11.53
2018-03-02T03:54:58.414Z,-11.53
2018-03-02T03:55:58.385Z,-11.48
2018-03-02T03:56:58.354Z,-11.50
2018-03-02T03:57:58.328Z,-11.42
2018-03-02T03:58:58.299Z,-11.42
2018-03-02T03:59:58.272Z,-11.45
2018-03-02T04:00:58.247Z,-11.42
2018-03-02T04:01:58.228Z,-11.57
2018-03-02T04:02:58.191Z,-11.60
2018-03-02T04:03:58.174Z,-11.51
2018-03-02T04:04:58.145Z,-11.50
2018-03-02T04:05:58.114Z,-11.53
2018-03-02T04:06:58.087Z,-11.58
2018-03-02T04:07:58.058Z,-11.54
2018-03-02T04:08:58.034Z,-11.50
2018-03-02T04:09:58.009Z,-11.58
2018-03-02T04:10:57.978Z,-11.64
2018-03-02T04:11:57.957Z,-11.57
2018-03-02T04:12:57.933Z,-11.61
2018-03-02T04:13:57.901Z,-11.58
2018-03-02T04:14:57.877Z,-11.60
2018-03-02T04:15:57.849Z,-11.50
2018-03-02T04:16:57.819Z,-11.61
2018-03-02T04:17:57.793Z,-11.64
2018-03-02T04:18:57.766Z,-11.64
2018-03-02T04:19:57.743Z,-11.66
2018-03-02T04:20:57.717Z,-11.69
2018-03-02T04:21:57.695Z,-11.61
2018-03-02T04:22:57.692Z,-11.68
2018-03-02T04:23:57.638Z,-11.74
2018-03-02T04:24:57.612Z,-11.71
2018-03-02T04:25:57.587Z,-11.61
2018-03-02T04:26:57.558Z,-11.75
2018-03-02T04:27:57.532Z,-11.72
2018-03-02T04:28:57.505Z,-11.74
2018-03-02T04:29:57.476Z,-11.78
2018-03-02T04:30:57.449Z,-11.75
2018-03-02T04:31:57.424Z,-11.65
2018-03-02T04:32:57.398Z,-11.75
2018-03-02T04:33:57.369Z,-11.65
2018-03-02T04:34:57.345Z,-11.71
2018-03-02T04:35:57.319Z,-11.65
2018-03-02T04:36:57.288Z,-11.68
2018-03-02T04:37:57.265Z,-11.71
2018-03-02T04:38:57.239Z,-11.75
2018-03-02T04:39:57.207Z,-11.66
2018-03-02T04:40:57.180Z,-11.65
2018-03-02T04:41:57.155Z,-11.76
2018-03-02T04:42:57.127Z,-11.72
2018-03-02T04:43:57.100Z,-11.69
2018-03-02T04:44:57.074Z,-11.66
2018-03-02T04:45:57.050Z,-11.65
2018-03-02T04:46:57.024Z,-11.69
2018-03-02T04:47:56.994Z,-11.71
2018-03-02T04:48:56.978Z,-11.66
2018-03-02T04:49:56.941Z,-11.74
2018-03-02T04:50:56.918Z,-11.71
2018-03-02T04:51:56.896Z,-11.69
2018-03-02T04:52:56.861Z,-11.75
2018-03-02T04:53:56.842Z,-11.71
2018-03-02T04:54:56.816Z,-11.66
2018-03-02T04:55:56.784Z,-11.65
2018-03-02T04:56:56.758Z,-11.71
2018-03-02T04:57:56.733Z,-11.66
2018-03-02T04:58:56.700Z,-11.72
2018-03-02T04:59:56.672Z,-11.72
2018-03-02T05:00:56.650Z,-11.76
2018-03-02T05:01:56.620Z,-11.69
2018-03-02T05:02:56.594Z,-11.82
2018-03-02T05:03:56.575Z,-11.72
2018-03-02T05:04:56.542Z,-11.72
2018-03-02T05:05:56.517Z,-11.71
2018-03-02T05:06:56.489Z,-11.66
2018-03-02T05:07:56.463Z,-11.75
2018-03-02T05:08:56.440Z,-11.75
2018-03-02T05:09:56.411Z,-11.71
2018-03-02T05:10:56.383Z,-11.65
2018-03-02T05:11:56.355Z,-11.75
2018-03-02T05:12:56.327Z,-11.69
2018-03-02T05:13:56.304Z,-11.82
2018-03-02T05:14:56.283Z,-11.76
2018-03-02T05:15:56.261Z,-11.72
2018-03-02T05:16:56.224Z,-11.69
2018-03-02T05:17:56.201Z,-11.66
2018-03-02T05:18:56.170Z,-11.76
2018-03-02T05:19:56.144Z,-11.71
2018-03-02T05:20:56.115Z,-11.69
2018-03-02T05:21:56.090Z,-11.66
2018-03-02T05:22:56.074Z,-11.68
2018-03-02T05:23:56.038Z,-11.66
2018-03-02T05:24:56.009Z,-11.79
2018-03-02T05:25:55.987Z,-11.76
2018-03-02T05:26:55.962Z,-11.71
2018-03-02T05:27:55.939Z,-11.66
2018-03-02T05:28:55.905Z,-11.75
2018-03-02T05:29:55.877Z,-11.68
2018-03-02T05:30:55.851Z,-11.71
2018-03-02T05:31:55.824Z,-11.78
2018-03-02T05:32:55.795Z,-11.72
2018-03-02T05:33:55.829Z,-11.65
2018-03-02T05:34:55.741Z,-11.71
2018-03-02T05:35:55.724Z,-11.72
2018-03-02T05:36:55.695Z,-11.72
2018-03-02T05:37:55.666Z,-11.71
2018-03-02T05:38:55.638Z,-11.74
2018-03-02T05:39:55.629Z,-11.72
2018-03-02T05:40:55.584Z,-11.74
2018-03-02T05:41:55.562Z,-11.69
2018-03-02T05:42:55.537Z,-11.74
2018-03-02T05:43:55.507Z,-11.66
2018-03-02T05:44:55.478Z,-11.74
2018-03-02T05:45:55.563Z,-11.75
2018-03-02T05:46:55.425Z,-11.76
2018-03-02T05:47:55.399Z,-11.75
2018-03-02T05:48:55.372Z,-11.84
2018-03-02T05:49:55.344Z,-11.79
2018-03-02T05:50:55.320Z,-11.78
2018-03-02T05:51:55.294Z,-11.83
2018-03-02T05:52:55.264Z,-11.71
2018-03-02T05:53:55.236Z,-11.75
2018-03-02T05:54:55.211Z,-11.64
2018-03-02T05:55:55.182Z,-11.71
2018-03-02T05:56:55.161Z,-11.75
2018-03-02T05:57:55.132Z,-11.66
2018-03-02T05:58:55.104Z,-11.72
2018-03-02T05:59:55.080Z,-11.72
2018-03-02T06:00:55.053Z,-11.66
2018-03-02T06:01:55.024Z,-11.68
2018-03-02T06:02:54.997Z,-11.64
2018-03-02T06:03:54.971Z,-11.61
2018-03-02T06:04:54.946Z,-11.58
2018-03-02T06:05:54.924Z,-11.64
2018-03-02T06:06:54.891Z,-11.54
2018-03-02T06:07:54.873Z,-11.53
2018-03-02T06:08:54.839Z,-11.53
2018-03-02T06:09:54.810Z,-11.54
2018-03-02T06:10:54.784Z,-11.54
2018-03-02T06:11:54.756Z,-11.55
2018-03-02T06:12:54.732Z,-11.55
2018-03-02T06:13:54.704Z,-11.47
2018-03-02T06:14:54.676Z,-11.40
2018-03-02T06:15:54.652Z,-11.50
2018-03-02T06:16:54.624Z,-11.50
2018-03-02T06:17:54.597Z,-11.42
2018-03-02T06:18:54.568Z,-11.48
2018-03-02T06:19:54.545Z,-11.44
2018-03-02T06:20:54.517Z,-11.50
2018-03-02T06:21:54.496Z,-11.34
2018-03-02T06:22:54.464Z,-11.39
2018-03-02T06:23:54.442Z,-11.33
2018-03-02T06:24:54.415Z,-11.37
2018-03-02T06:25:54.391Z,-11.37
2018-03-02T06:26:54.356Z,-11.23
2018-03-02T06:27:54.334Z,-11.23
2018-03-02T06:28:54.316Z,-11.27
2018-03-02T06:29:54.283Z,-11.21
2018-03-02T06:30:54.304Z,-11.16
2018-03-02T06:31:54.232Z,-11.11
2018-03-02T06:32:54.217Z,-11.12
2018-03-02T06:33:54.174Z,-11.15
2018-03-02T06:34:54.249Z,-11.12
2018-03-02T06:35:54.116Z,-11.13
2018-03-02T06:36:54.177Z,-11.16
2018-03-02T06:37:54.073Z,-11.06
2018-03-02T06:38:54.155Z,-10.97
2018-03-02T06:39:54.014Z,-11.03
2018-03-02T06:40:54.160Z,-10.90
2018-03-02T06:41:53.959Z,-10.97
2018-03-02T06:42:53.948Z,-10.86
2018-03-02T06:43:53.906Z,-10.88
2018-03-02T06:44:53.884Z,-10.83
2018-03-02T06:45:53.858Z,-10.79
2018-03-02T06:46:53.827Z,-10.86
2018-03-02T06:47:53.802Z,-10.79
2018-03-02T06:48:53.780Z,-10.88
2018-03-02T06:49:53.754Z,-10.71
2018-03-02T06:50:53.725Z,-10.72
2018-03-02T06:51:53.698Z,-10.75
2018-03-02T06:52:53.670Z,-10.75
2018-03-02T06:53:53.648Z,-10.78
2018-03-02T06:54:53.622Z,-10.75
2018-03-02T06:55:53.590Z,-10.75
2018-03-02T06:56:53.565Z,-10.68
2018-03-02T06:57:53.548Z,-10.68
2018-03-02T06:58:53.509Z,-10.58
2018-03-02T06:59:53.487Z,-10.46
2018-03-02T07:00:53.462Z,-10.46
2018-03-02T07:01:53.432Z,-10.40
2018-03-02T07:02:53.408Z,-10.37
2018-03-02T07:03:53.382Z,-10.26
2018-03-02T07:04:53.358Z,-10.26
2018-03-02T07:05:53.326Z,-10.36
2018-03-02T07:06:53.309Z,-10.23
2018-03-02T07:07:53.275Z,-10.23
2018-03-02T07:08:53.248Z,-10.25
2018-03-02T07:09:53.226Z,-10.12
2018-03-02T07:10:53.203Z,-10.22
2018-03-02T07:11:53.170Z,-10.13
2018-03-02T07:12:53.145Z,-10.15
2018-03-02T07:13:53.125Z,-10.02
2018-03-02T07:14:53.094Z,-9.94
2018-03-02T07:15:53.065Z,-9.98
2018-03-02T07:16:53.040Z,-10.02
2018-03-02T07:17:53.016Z,-9.95
2018-03-02T07:18:52.992Z,-9.81
2018-03-02T07:19:52.970Z,-9.69
2018-03-02T07:20:52.938Z,-9.68
2018-03-02T07:21:52.915Z,-9.69
2018-03-02T07:22:52.899Z,-9.54
2018-03-02T07:23:52.866Z,-9.65
2018-03-02T07:24:52.835Z,-9.59
2018-03-02T07:25:52.808Z,-9.51
2018-03-02T07:26:52.785Z,-9.39
2018-03-02T07:27:52.758Z,-9.41
2018-03-02T07:28:52.733Z,-9.37
2018-03-02T07:29:52.704Z,-9.32
2018-03-02T07:30:52.682Z,-9.37
2018-03-02T07:31:52.654Z,-9.36
2018-03-02T07:32:52.635Z,-9.33
2018-03-02T07:33:52.603Z,-9.22
2018-03-02T07:34:52.578Z,-9.23
2018-03-02T07:35:52.559Z,-9.15
2018-03-02T07:36:52.524Z,-9.08
2018-03-02T07:37:52.509Z,-9.07
2018-03-02T07:38:52.475Z,-9.05
2018-03-02T07:39:52.453Z,-9.00
2018-03-02T07:40:52.424Z,-9.01
2018-03-02T07:41:52.398Z,-8.91
2018-03-02T07:42:52.373Z,-8.80
2018-03-02T07:43:52.349Z,-8.80
2018-03-02T07:44:52.321Z,-8.66
2018-03-02T07:45:52.303Z,-8.70
2018-03-02T07:46:52.271Z,-8.55
2018-03-02T07:47:52.246Z,-8.52
2018-03-02T07:48:52.223Z,-8.44
2018-03-02T07:49:52.199Z,-8.34
2018-03-02T07:50:52.166Z,-8.36
2018-03-02T07:51:52.145Z,-8.29
2018-03-02T07:52:52.119Z,-8.33
2018-03-02T07:53:52.094Z,-8.27
2018-03-02T07:54:52.073Z,-8.26
2018-03-02T07:55:52.042Z,-8.12
2018-03-02T07:56:52.017Z,-8.13
2018-03-02T07:57:51.997Z,-8.02
2018-03-02T07:58:51.970Z,-7.94
2018-03-02T07:59:51.941Z,-7.83
2018-03-02T08:00:51.913Z,-7.76
2018-03-02T08:01:51.892Z,-7.73
2018-03-02T08:02:51.868Z,-7.66
2018-03-02T08:03:51.840Z,-7.61
2018-03-02T08:04:51.819Z,-7.51
2018-03-02T08:05:51.794Z,-7.46
2018-03-02T08:06:51.769Z,-7.43
2018-03-02T08:07:51.743Z,-7.44
2018-03-02T08:08:51.717Z,-7.40
2018-03-02T08:09:51.691Z,-7.33
2018-03-02T08:10:51.668Z,-7.29
2018-03-02T08:11:51.649Z,-7.21
2018-03-02T08:12:51.623Z,-7.12
2018-03-02T08:13:51.595Z,-7.16
2018-03-02T08:14:51.570Z,-7.15
2018-03-02T08:15:51.544Z,-6.95
2018-03-02T08:16:51.523Z,-6.89
2018-03-02T08:17:51.498Z,-6.84
2018-03-02T08:18:51.470Z,-6.76
2018-03-02T08:19:51.452Z,-6.69
2018-03-02T08:20:51.425Z,-6.68
2018-03-02T08:21:51.400Z,-6.59
2018-03-02T08:22:51.380Z,-6.43
2018-03-02T08:23:51.359Z,-6.36
2018-03-02T08:24:51.330Z,-6.36
2018-03-02T08:25:51.308Z,-6.29
2018-03-02T08:26:51.276Z,-6.15
2018-03-02T08:27:51.269Z,-6.05
2018-03-02T08:28:51.230Z,-5.92
2018-03-02T08:29:51.211Z,-5.74
2018-03-02T08:30:51.182Z,-5.55
2018-03-02T08:31:51.160Z,-5.33
2018-03-02T08:32:51.139Z,-5.25
2018-03-02T08:33:51.122Z,-5.10
2018-03-02T08:34:51.095Z,-4.79
2018-03-02T08:35:51.064Z,-4.57
2018-03-02T08:36:51.041Z,-4.15
2018-03-02T08:37:51.021Z,-4.01
2018-03-02T08:38:50.990Z,-3.83
2018-03-02T08:39:50.972Z,-3.46
2018-03-02T08:40:50.951Z,-3.33
2018-03-02T08:41:50.926Z,-3.06
2018-03-02T08:42:50.902Z,-3.02
2018-03-02T08:43:50.878Z,-2.67
2018-03-02T08:44:50.862Z,-2.49
2018-03-02T08:45:50.832Z,-2.39
2018-03-02T08:46:50.810Z,-2.06
2018-03-02T08:47:50.790Z,-2.03
2018-03-02T08:48:50.767Z,-1.94
2018-03-02T08:49:50.744Z,-1.95
2018-03-02T08:50:50.728Z,-1.77
2018-03-02T08:51:50.701Z,-1.54
2018-03-02T08:52:50.681Z,-1.20
2018-03-02T08:53:50.661Z,-1.28
2018-03-02T08:54:50.641Z,-1.25
2018-03-02T08:55:50.618Z,-1.27
2018-03-02T08:56:50.602Z,-1.37
2018-03-02T08:57:50.582Z,-1.19
2018-03-02T08:58:50.560Z,-1.10
2018-03-02T08:59:50.539Z,-0.94
2018-03-02T09:00:50.521Z,-0.86
2018-03-02T09:01:50.499Z,-0.92
2018-03-02T09:02:50.489Z,-1.07
2018-03-02T09:03:50.477Z,-1.13
2018-03-02T09:04:50.437Z,-1.02
2018-03-02T09:05:50.419Z,-0.95
2018-03-02T09:06:50.402Z,-0.94
2018-03-02T09:07:50.383Z,-0.64
2018-03-02T09:08:50.362Z,-0.64
2018-03-02T09:09:50.344Z,-0.60
2018-03-02T09:10:50.324Z,-0.58
2018-03-02T09:11:50.394Z,-0.67
2018-03-02T09:12:50.289Z,-0.80
2018-03-02T09:13:50.273Z,-0.69
2018-03-02T09:14:50.254Z,-0.75
2018-03-02T09:15:50.242Z,-0.76
2018-03-02T09:16:50.266Z,-0.73
2018-03-02T09:17:50.198Z,-0.80
2018-03-02T09:18:50.183Z,-0.76
2018-03-02T09:19:50.165Z,-0.76
2018-03-02T09:20:50.150Z,-0.80
2018-03-02T09:21:50.131Z,-0.83
2018-03-02T09:22:50.184Z,-0.65
2018-03-02T09:23:50.107Z,-0.58
2018-03-02T09:24:50.140Z,-0.25
2018-03-02T09:25:50.064Z,0.02
2018-03-02T09:26:50.048Z,0.23
2018-03-02T09:27:50.030Z,0.32
2018-03-02T09:28:50.014Z,0.41
2018-03-02T09:29:50.006Z,0.58
2018-03-02T09:30:49.985Z,0.70
2018-03-02T09:31:49.963Z,0.72
2018-03-02T09:32:50.055Z,0.83
2018-03-02T09:33:49.930Z,1.18
2018-03-02T09:34:50.002Z,0.96
2018-03-02T09:35:49.898Z,1.23
2018-03-02T09:36:49.889Z,1.42
2018-03-02T09:37:49.867Z,1.76
2018-03-02T09:38:49.860Z,1.77
2018-03-02T09:39:49.847Z,1.99
2018-03-02T09:40:49.840Z,2.14
2018-03-02T09:41:49.810Z,2.27
2018-03-02T09:42:49.916Z,2.36
2018-03-02T09:43:49.779Z,2.09
2018-03-02T09:44:49.764Z,1.81
2018-03-02T09:45:49.754Z,1.69
2018-03-02T09:46:49.742Z,1.76
2018-03-02T09:47:49.739Z,2.00
2018-03-02T09:48:49.716Z,2.23
2018-03-02T09:49:49.699Z,2.24
2018-03-02T09:50:49.691Z,2.75
2018-03-02T09:51:49.677Z,3.03
2018-03-02T09:52:49.669Z,3.28
2018-03-02T09:53:49.653Z,3.65
2018-03-02T09:54:49.666Z,3.78
2018-03-02T09:55:49.633Z,3.94
2018-03-02T09:56:49.622Z,3.83
2018-03-02T09:57:49.614Z,3.69
2018-03-02T09:58:49.606Z,3.90
2018-03-02T09:59:49.589Z,4.16
2018-03-02T10:00:49.583Z,4.30
2018-03-02T10:01:49.569Z,4.27
2018-03-02T10:02:49.559Z,4.29
2018-03-02T10:03:49.553Z,4.08
2018-03-02T10:04:49.540Z,4.11
2018-03-02T10:05:49.533Z,4.37
2018-03-02T10:06:49.525Z,4.29
2018-03-02T10:07:49.515Z,4.66
2018-03-02T10:08:49.513Z,4.72
2018-03-02T10:09:49.498Z,4.70
2018-03-02T10:10:49.494Z,4.75
2018-03-02T10:11:49.486Z,4.69
2018-03-02T10:12:49.480Z,4.47
2018-03-02T10:13:49.470Z,4.32
2018-03-02T10:14:49.462Z,4.75
2018-03-02T10:15:49.456Z,5.06
2018-03-02T10:16:49.450Z,5.22
2018-03-02T10:17:49.444Z,5.31
2018-03-02T10:18:49.438Z,5.72
2018-03-02T10:19:49.425Z,5.76
2018-03-02T10:20:49.421Z,5.78
2018-03-02T10:21:49.417Z,5.31
2018-03-02T10:22:49.416Z,5.31
2018-03-02T10:23:49.408Z,5.36
2018-03-02T10:24:49.397Z,5.71
2018-03-02T10:25:49.399Z,5.71
2018-03-02T10:26:49.384Z,5.94
2018-03-02T10:27:49.506Z,5.72
2018-03-02T10:28:49.378Z,5.65
2018-03-02T10:29:49.372Z,5.79
2018-03-02T10:30:49.365Z,5.53
2018-03-02T10:31:49.417Z,5.90
2018-03-02T10:32:49.360Z,6.30
2018-03-02T10:33:49.352Z,5.86
2018-03-02T10:34:49.347Z,5.38
2018-03-02T10:35:49.343Z,5.36
2018-03-02T10:36:49.337Z,5.40
2018-03-02T10:37:49.338Z,5.39
2018-03-02T10:38:49.331Z,5.25
2018-03-02T10:39:49.325Z,5.49
2018-03-02T10:40:49.323Z,5.13
2018-03-02T10:41:49.326Z,5.09
2018-03-02T10:42:49.311Z,5.21
2018-03-02T10:43:49.305Z,5.07
2018-03-02T10:44:49.315Z,5.56
2018-03-02T10:45:49.306Z,5.94
2018-03-02T10:46:49.297Z,6.14
2018-03-02T10:47:49.292Z,6.08
2018-03-02T10:48:49.287Z,6.09
2018-03-02T10:49:49.282Z,6.52
2018-03-02T10:50:49.281Z,6.55
2018-03-02T10:51:49.276Z,6.64
2018-03-02T10:52:49.279Z,6.61
2018-03-02T10:53:49.272Z,6.55
2018-03-02T10:54:49.266Z,6.21
2018-03-02T10:55:49.265Z,6.27
2018-03-02T10:56:49.257Z,6.19
2018-03-02T10:57:49.256Z,6.27
2018-03-02T10:58:49.258Z,6.18
2018-03-02T10:59:49.250Z,5.89
2018-03-02T11:00:49.248Z,5.54
2018-03-02T11:01:49.286Z,5.85
2018-03-02T11:02:49.266Z,6.06
2018-03-02T11:03:49.246Z,6.08
2018-03-02T11:04:49.235Z,6.51
2018-03-02T11:05:49.235Z,6.44
2018-03-02T11:06:49.232Z,6.71
2018-03-02T11:07:49.230Z,6.62
2018-03-02T11:08:49.225Z,6.74
2018-03-02T11:09:49.224Z,6.54
2018-03-02T11:10:49.220Z,6.27
2018-03-02T11:11:49.224Z,6.18
2018-03-02T11:12:49.217Z,6.11
2018-03-02T11:13:49.216Z,5.96
2018-03-02T11:14:49.209Z,6.06
2018-03-02T11:15:49.208Z,5.79
2018-03-02T11:16:49.207Z,5.93
2018-03-02T11:17:49.208Z,5.85
2018-03-02T11:18:49.204Z,5.76
2018-03-02T11:19:49.208Z,6.11
2018-03-02T11:20:49.196Z,6.18
2018-03-02T11:21:49.196Z,6.38
2018-03-02T11:22:49.191Z,6.73
2018-03-02T11:23:49.192Z,6.89
2018-03-02T11:24:49.192Z,7.12
2018-03-02T11:25:49.190Z,7.49
2018-03-02T11:26:49.189Z,7.71
2018-03-02T11:27:49.186Z,7.77
2018-03-02T11:28:49.186Z,7.83
2018-03-02T11:29:49.186Z,7.82
2018-03-02T11:30:49.178Z,7.64
2018-03-02T11:31:49.173Z,7.95
2018-03-02T11:32:49.176Z,7.82
2018-03-02T11:33:49.176Z,7.67
2018-03-02T11:34:49.173Z,7.49
2018-03-02T11:35:49.169Z,7.55
2018-03-02T11:36:49.169Z,7.52
2018-03-02T11:37:49.174Z,7.32
2018-03-02T11:38:49.164Z,6.99
2018-03-02T11:39:49.162Z,7.21
2018-03-02T11:40:49.171Z,7.40
2018-03-02T11:41:49.169Z,7.42
2018-03-02T11:42:49.161Z,7.68
2018-03-02T11:43:49.164Z,7.69
2018-03-02T11:44:49.163Z,7.87
2018-03-02T11:45:49.163Z,8.00
2018-03-02T11:46:49.156Z,8.10
2018-03-02T11:47:49.156Z,8.44
2018-03-02T11:48:49.159Z,8.50
2018-03-02T11:49:49.156Z,8.65
2018-03-02T11:50:49.154Z,8.77
2018-03-02T11:51:49.155Z,8.16
2018-03-02T11:52:49.161Z,8.28
2018-03-02T11:53:49.153Z,8.20
2018-03-02T11:54:49.161Z,7.90
2018-03-02T11:55:49.151Z,8.11
2018-03-02T11:56:49.149Z,7.90
2018-03-02T11:57:49.150Z,7.97
2018-03-02T11:58:49.152Z,8.08
2018-03-02T11:59:49.152Z,8.07
2018-03-02T12:00:49.143Z,8.11
2018-03-02T12:01:49.144Z,7.82
2018-03-02T12:02:49.153Z,7.71
2018-03-02T12:03:49.143Z,7.68
2018-03-02T12:04:49.143Z,7.48
2018-03-02T12:05:49.145Z,7.68
2018-03-02T12:06:49.141Z,8.00
2018-03-02T12:07:49.141Z,8.15
2018-03-02T12:08:49.141Z,8.05
2018-03-02T12:09:49.141Z,7.97
2018-03-02T12:10:49.140Z,8.08
2018-03-02T12:11:49.135Z,8.00
2018-03-02T12:12:49.135Z,7.74
2018-03-02T12:13:49.131Z,7.53
2018-03-02T12:14:49.137Z,7.42
2018-03-02T12:15:49.140Z,7.05
2018-03-02T12:16:49.194Z,7.05
2018-03-02T12:17:49.133Z,7.49
2018-03-02T12:18:49.132Z,7.58
2018-03-02T12:19:49.132Z,7.74
2018-03-02T12:20:49.126Z,7.90
2018-03-02T12:21:49.126Z,8.30
2018-03-02T12:22:49.137Z,8.29
2018-03-02T12:23:49.122Z,8.48
2018-03-02T12:24:49.127Z,8.62
2018-03-02T12:25:49.120Z,8.47
2018-03-02T12:26:49.121Z,8.84
2018-03-02T12:27:49.117Z,9.17
2018-03-02T12:28:49.117Z,9.18
2018-03-02T12:29:49.117Z,9.14
2018-03-02T12:30:49.115Z,8.63
2018-03-02T12:31:49.110Z,8.77
2018-03-02T12:32:49.115Z,8.81
2018-03-02T12:33:49.119Z,8.98
2018-03-02T12:34:49.111Z,8.91
2018-03-02T12:35:49.112Z,8.87
2018-03-02T12:36:49.109Z,8.59
2018-03-02T12:37:49.107Z,8.48
2018-03-02T12:38:49.186Z,8.29
2018-03-02T12:39:49.106Z,8.25
2018-03-02T12:40:49.105Z,8.00
2018-03-02T12:41:49.102Z,7.63
2018-03-02T12:42:49.100Z,7.43
2018-03-02T12:43:49.098Z,7.53
2018-03-02T12:44:49.105Z,7.72